Time;durP1;ratioP1;P1;durP2;ratioP2;P2;SDS_P1;SDS_P2;PMS_P1;PMS_P2;Temp;Humidity;BMP_temperature;BMP_pressure;BME280_temperature;BME280_humidity;BME280_pressure;Samples;Min_cycle;Max_cycle;Signal;HPM_P1;HPM_P2
2022/12/26 00:01:48;;;;;;;141.98;29.27;;;;;;;;;;5044822;28;20047;-76
2022/12/26 00:04:15;;;;;;;133.75;28.58;;;;;;;;;;5038737;28;20055;-76
2022/12/26 00:06:41;;;;;;;160.85;33.00;;;;;;;;;;5036987;28;20097;-76
2022/12/26 00:09:07;;;;;;;142.07;27.48;;;;;;;;;;5019403;28;20127;-78
2022/12/26 00:11:34;;;;;;;138.77;28.35;;;;;;;;;;5037267;28;21985;-77
2022/12/26 00:14:02;;;;;;;145.50;28.27;;;;;;;;;;5040278;28;20055;-76
2022/12/26 00:16:28;;;;;;;135.02;27.80;;;;;;;;;;5042883;28;20108;-77
2022/12/26 00:18:54;;;;;;;113.57;25.17;;;;;;;;;;5038411;28;20149;-77
2022/12/26 00:21:22;;;;;;;130.38;26.40;;;;;;;;;;5034282;28;20604;-77
2022/12/26 00:23:48;;;;;;;136.77;26.70;;;;;;;;;;5034405;28;20041;-77
2022/12/26 00:26:19;;;;;;;140.75;27.60;;;;;;;;;;5021462;28;20166;-77
2022/12/26 00:28:45;;;;;;;131.55;27.40;;;;;;;;;;5035680;28;20105;-77
2022/12/26 00:31:13;;;;;;;125.75;27.10;;;;;;;;;;5037721;28;20048;-77
2022/12/26 00:33:39;;;;;;;109.95;24.45;;;;;;;;;;5036938;28;20724;-77
2022/12/26 00:36:06;;;;;;;144.45;27.80;;;;;;;;;;5041906;28;20672;-77
2022/12/26 00:38:34;;;;;;;119.07;23.63;;;;;;;;;;5033708;28;20036;-77
2022/12/26 00:41:00;;;;;;;153.73;27.70;;;;;;;;;;5023358;28;20041;-76
2022/12/26 00:43:26;;;;;;;121.72;24.23;;;;;;;;;;5036998;28;20630;-77
2022/12/26 00:45:52;;;;;;;114.25;22.55;;;;;;;;;;5008087;28;20041;-76
2022/12/26 00:48:18;;;;;;;121.47;24.67;;;;;;;;;;5037272;28;20097;-76
2022/12/26 00:50:44;;;;;;;137.80;27.60;;;;;;;;;;5020765;28;20731;-76
2022/12/26 00:53:11;;;;;;;101.60;24.35;;;;;;;;;;5037305;28;20113;-76
2022/12/26 00:55:38;;;;;;;101.50;24.55;;;;;;;;;;5033867;28;20040;-75
2022/12/26 00:58:04;;;;;;;87.45;23.45;;;;;;;;;;5023098;28;20049;-76
2022/12/26 01:00:30;;;;;;;90.82;23.42;;;;;;;;;;5036198;28;20441;-76
2022/12/26 01:02:56;;;;;;;87.05;22.25;;;;;;;;;;5034985;28;20067;-76
2022/12/26 01:05:22;;;;;;;89.70;23.90;;;;;;;;;;5036975;28;20152;-76
2022/12/26 01:07:48;;;;;;;83.85;22.25;;;;;;;;;;5035700;28;20047;-76
2022/12/26 01:10:15;;;;;;;88.45;21.73;;;;;;;;;;5020489;28;20592;-76
2022/12/26 01:12:41;;;;;;;87.68;23.83;;;;;;;;;;5021347;28;20042;-76
2022/12/26 01:15:07;;;;;;;85.05;24.73;;;;;;;;;;5037171;28;20044;-77
2022/12/26 01:17:34;;;;;;;79.63;21.55;;;;;;;;;;5024565;28;20049;-77
2022/12/26 01:20:00;;;;;;;86.65;23.55;;;;;;;;;;5040171;28;20499;-76
2022/12/26 01:22:26;;;;;;;85.03;23.58;;;;;;;;;;5006726;28;20063;-75
2022/12/26 01:24:56;;;;;;;79.20;20.55;;;;;;;;;;5038481;28;20040;-77
2022/12/26 01:27:23;;;;;;;78.75;21.83;;;;;;;;;;5034482;28;20036;-75
2022/12/26 01:29:49;;;;;;;91.72;23.83;;;;;;;;;;5035316;28;21610;-76
2022/12/26 01:32:15;;;;;;;81.55;21.90;;;;;;;;;;5033915;28;20041;-76
2022/12/26 01:34:41;;;;;;;76.20;20.50;;;;;;;;;;5037327;28;20059;-76
2022/12/26 01:37:07;;;;;;;74.97;21.35;;;;;;;;;;5031841;28;20040;-78
2022/12/26 01:39:33;;;;;;;67.40;21.13;;;;;;;;;;5019721;28;20051;-76
2022/12/26 01:41:59;;;;;;;67.65;19.20;;;;;;;;;;5035285;28;20048;-76
2022/12/26 01:44:44;;;;;;;64.05;18.98;;;;;;;;;;5046122;28;20628;-77
2022/12/26 01:47:11;;;;;;;68.93;21.38;;;;;;;;;;5035271;28;20091;-76
2022/12/26 01:49:40;;;;;;;72.90;20.98;;;;;;;;;;5027850;28;20044;-76
2022/12/26 01:52:09;;;;;;;73.45;21.02;;;;;;;;;;5034076;28;20048;-75
2022/12/26 01:54:37;;;;;;;71.68;21.55;;;;;;;;;;5020478;28;20129;-77
2022/12/26 01:57:04;;;;;;;69.72;20.60;;;;;;;;;;5040447;28;20055;-76
2022/12/26 01:59:31;;;;;;;74.55;20.40;;;;;;;;;;5035639;28;20503;-76
2022/12/26 02:01:58;;;;;;;72.80;21.52;;;;;;;;;;5015407;28;20040;-76
2022/12/26 02:07:25;;;;;;;82.97;23.38;;;;;;;;;;4995150;28;20055;-77
2022/12/26 02:09:51;;;;;;;80.35;22.27;;;;;;;;;;5037599;28;20066;-77
2022/12/26 02:12:24;;;;;;;97.68;24.10;;;;;;;;;;5040662;28;20204;-77
2022/12/26 02:14:50;;;;;;;105.63;25.48;;;;;;;;;;5024004;28;20036;-78
2022/12/26 02:17:17;;;;;;;97.97;24.90;;;;;;;;;;5028560;28;20170;-78
2022/12/26 02:19:46;;;;;;;104.22;25.08;;;;;;;;;;5038853;28;20074;-78
2022/12/26 02:22:31;;;;;;;99.90;24.17;;;;;;;;;;5043100;28;20041;-78
2022/12/26 02:25:21;;;;;;;111.28;25.67;;;;;;;;;;5029032;28;20138;-78
2022/12/26 02:28:17;;;;;;;97.80;22.13;;;;;;;;;;5043560;28;20047;-76
2022/12/26 02:30:43;;;;;;;99.70;23.60;;;;;;;;;;5023944;28;20153;-77
2022/12/26 02:33:24;;;;;;;100.75;24.08;;;;;;;;;;5021898;28;20657;-78
2022/12/26 02:36:02;;;;;;;96.53;24.38;;;;;;;;;;5037979;28;20503;-77
2022/12/26 02:38:44;;;;;;;95.60;23.27;;;;;;;;;;5038933;28;20040;-77
2022/12/26 02:41:42;;;;;;;75.03;20.27;;;;;;;;;;5035914;28;20051;-77
2022/12/26 02:47:35;;;;;;;72.60;20.83;;;;;;;;;;5039951;28;20645;-76
2022/12/26 03:13:12;;;;;;;62.65;19.35;;;;;;;;;;5039626;28;20146;-77
2022/12/26 03:18:27;;;;;;;71.97;21.05;;;;;;;;;;5040564;28;20044;-77
2022/12/26 03:20:54;;;;;;;59.38;19.52;;;;;;;;;;5037964;28;20133;-77
2022/12/26 03:23:21;;;;;;;61.92;19.42;;;;;;;;;;5040187;28;20047;-77
2022/12/26 03:28:47;;;;;;;57.13;17.83;;;;;;;;;;5036671;28;20044;-77
2022/12/26 03:31:14;;;;;;;57.33;18.95;;;;;;;;;;5022679;28;20041;-76
2022/12/26 03:36:45;;;;;;;63.47;19.65;;;;;;;;;;5048345;28;20086;-76
2022/12/26 04:19:22;;;;;;;53.55;19.83;;;;;;;;;;5019144;28;20044;-75
2022/12/26 04:19:51;;;;;;;54.30;23.23;;;;;;;;;;5037996;28;20724;-75
2022/12/26 04:45:07;;;;;;;61.60;28.48;;;;;;;;;;5041168;28;22911;-75
2022/12/26 04:47:34;;;;;;;58.95;26.30;;;;;;;;;;5027691;28;20132;-75
2022/12/26 04:50:14;;;;;;;66.05;30.00;;;;;;;;;;5018908;28;20440;-76
2022/12/26 04:52:59;;;;;;;64.32;28.13;;;;;;;;;;5034521;28;20055;-75
2022/12/26 04:55:26;;;;;;;64.70;28.35;;;;;;;;;;5018672;28;20373;-75
2022/12/26 04:57:52;;;;;;;63.83;27.02;;;;;;;;;;5034230;28;20078;-75
2022/12/26 05:00:18;;;;;;;66.43;28.25;;;;;;;;;;5032792;28;20094;-75
2022/12/26 05:11:09;;;;;;;70.90;29.13;;;;;;;;;;5031114;28;20093;-76
2022/12/26 05:13:35;;;;;;;55.28;24.63;;;;;;;;;;5035635;28;20051;-76
2022/12/26 05:29:46;;;;;;;58.35;25.20;;;;;;;;;;4994938;28;20075;-73
2022/12/26 05:32:12;;;;;;;57.53;27.23;;;;;;;;;;5017998;28;20044;-76
2022/12/26 05:34:38;;;;;;;54.58;22.52;;;;;;;;;;5032329;28;20131;-74
2022/12/26 05:37:04;;;;;;;58.83;27.83;;;;;;;;;;5031509;28;20483;-75
2022/12/26 05:39:30;;;;;;;46.85;23.20;;;;;;;;;;5029393;28;20067;-75
2022/12/26 05:41:56;;;;;;;53.50;26.73;;;;;;;;;;5034184;28;20083;-75
2022/12/26 05:44:22;;;;;;;53.40;26.52;;;;;;;;;;5034785;28;20052;-74
2022/12/26 05:46:48;;;;;;;44.33;22.88;;;;;;;;;;5055849;28;20051;-75
2022/12/26 05:49:15;;;;;;;44.55;22.35;;;;;;;;;;5003530;28;20039;-75
2022/12/26 05:51:41;;;;;;;33.30;17.17;;;;;;;;;;5037349;28;20036;-75
2022/12/26 05:54:07;;;;;;;38.58;20.10;;;;;;;;;;5003400;28;20174;-76
2022/12/26 05:56:33;;;;;;;38.88;22.60;;;;;;;;;;5035966;28;20128;-75
2022/12/26 05:59:00;;;;;;;35.20;20.58;;;;;;;;;;5019098;28;20642;-75
2022/12/26 06:01:27;;;;;;;32.75;18.45;;;;;;;;;;5036775;28;20048;-76
2022/12/26 06:03:55;;;;;;;40.08;21.30;;;;;;;;;;5022284;28;20404;-76
2022/12/26 06:06:21;;;;;;;32.40;18.80;;;;;;;;;;5020092;28;20068;-75
2022/12/26 06:08:48;;;;;;;39.83;22.52;;;;;;;;;;5033393;28;20040;-76
2022/12/26 06:11:14;;;;;;;44.70;20.00;;;;;;;;;;5035989;28;20385;-75
2022/12/26 06:13:45;;;;;;;45.58;23.88;;;;;;;;;;5037513;28;20049;-76
2022/12/26 06:16:13;;;;;;;40.08;21.85;;;;;;;;;;5033816;28;20040;-75
2022/12/26 06:18:39;;;;;;;36.97;19.63;;;;;;;;;;5037495;28;20792;-76
2022/12/26 06:21:12;;;;;;;38.08;21.77;;;;;;;;;;5036798;28;20159;-76
2022/12/26 06:23:39;;;;;;;46.92;25.95;;;;;;;;;;5035978;28;20055;-76
2022/12/26 06:26:06;;;;;;;42.97;23.92;;;;;;;;;;5023222;28;20082;-76
2022/12/26 06:28:33;;;;;;;30.38;19.02;;;;;;;;;;5023195;28;20089;-76
2022/12/26 06:31:03;;;;;;;43.85;23.98;;;;;;;;;;5056594;28;20039;-75
2022/12/26 06:33:29;;;;;;;41.58;24.00;;;;;;;;;;5035405;28;20051;-75
2022/12/26 06:35:55;;;;;;;41.60;26.83;;;;;;;;;;5039564;28;20085;-75
2022/12/26 06:38:21;;;;;;;43.45;26.00;;;;;;;;;;5038652;28;20581;-75
2022/12/26 06:40:47;;;;;;;39.45;22.83;;;;;;;;;;5019755;28;20048;-75
2022/12/26 06:43:13;;;;;;;43.13;26.45;;;;;;;;;;5027133;28;20101;-77
2022/12/26 06:45:39;;;;;;;34.58;22.77;;;;;;;;;;5039200;28;20052;-76
2022/12/26 06:48:05;;;;;;;40.38;25.42;;;;;;;;;;5040158;28;20123;-75
2022/12/26 06:50:38;;;;;;;38.70;24.92;;;;;;;;;;5021916;28;20128;-75
2022/12/26 06:53:04;;;;;;;37.75;23.98;;;;;;;;;;5031764;28;20173;-75
2022/12/26 06:55:30;;;;;;;33.33;22.63;;;;;;;;;;5039104;28;20523;-76
2022/12/26 06:57:56;;;;;;;33.13;22.17;;;;;;;;;;5044382;28;20051;-77
2022/12/26 07:00:22;;;;;;;33.97;22.52;;;;;;;;;;5024598;28;20080;-76
2022/12/26 07:02:50;;;;;;;36.55;23.73;;;;;;;;;;5038562;28;20044;-76
2022/12/26 07:05:16;;;;;;;28.35;19.38;;;;;;;;;;5033779;28;20068;-76
2022/12/26 07:07:42;;;;;;;24.95;16.20;;;;;;;;;;5015797;28;20443;-76
2022/12/26 07:10:08;;;;;;;30.63;19.75;;;;;;;;;;5022702;28;20742;-76
2022/12/26 07:12:35;;;;;;;28.63;20.83;;;;;;;;;;5019249;28;20132;-77
2022/12/26 07:15:01;;;;;;;30.98;19.52;;;;;;;;;;5017823;28;20040;-76
2022/12/26 07:17:27;;;;;;;28.30;19.70;;;;;;;;;;5053464;28;20040;-76
2022/12/26 07:19:53;;;;;;;31.13;19.30;;;;;;;;;;5018796;28;20041;-76
2022/12/26 07:22:19;;;;;;;31.60;21.48;;;;;;;;;;5031811;28;20496;-77
2022/12/26 07:24:45;;;;;;;23.02;16.70;;;;;;;;;;5049367;28;20047;-75
2022/12/26 07:27:11;;;;;;;32.60;18.88;;;;;;;;;;5023052;28;20040;-75
2022/12/26 07:29:38;;;;;;;27.33;15.75;;;;;;;;;;5032729;28;20132;-76
2022/12/26 07:32:04;;;;;;;25.40;17.17;;;;;;;;;;5035023;28;20211;-75
2022/12/26 07:34:30;;;;;;;21.80;14.80;;;;;;;;;;5018954;28;20102;-76
2022/12/26 07:36:56;;;;;;;24.17;16.30;;;;;;;;;;5037014;28;20104;-76
2022/12/26 07:39:23;;;;;;;22.88;15.30;;;;;;;;;;5021159;28;20553;-76
2022/12/26 07:41:58;;;;;;;28.58;18.75;;;;;;;;;;5036013;28;20091;-76
2022/12/26 07:44:25;;;;;;;24.30;16.50;;;;;;;;;;5034251;28;20052;-76
2022/12/26 07:46:52;;;;;;;28.35;18.35;;;;;;;;;;5018476;28;20045;-76
2022/12/26 07:49:18;;;;;;;24.02;16.48;;;;;;;;;;5033597;28;20063;-75
2022/12/26 07:51:44;;;;;;;19.67;14.00;;;;;;;;;;5032303;28;20071;-74
2022/12/26 07:54:10;;;;;;;23.50;14.93;;;;;;;;;;5035953;28;20512;-75
2022/12/26 07:56:36;;;;;;;17.15;12.07;;;;;;;;;;5036234;28;20048;-77
2022/12/26 07:59:02;;;;;;;23.27;14.95;;;;;;;;;;5053362;28;20728;-76
2022/12/26 08:01:29;;;;;;;23.95;14.05;;;;;;;;;;5035070;28;20116;-76
2022/12/26 08:03:55;;;;;;;21.08;14.55;;;;;;;;;;5021015;28;20048;-73
2022/12/26 08:06:21;;;;;;;19.77;11.63;;;;;;;;;;5038070;28;20117;-76
2022/12/26 08:08:47;;;;;;;20.58;12.77;;;;;;;;;;5056332;28;20044;-76
2022/12/26 08:11:14;;;;;;;18.60;13.10;;;;;;;;;;5039335;28;20470;-77
2022/12/26 08:13:41;;;;;;;19.80;13.00;;;;;;;;;;5019690;28;20052;-76
2022/12/26 08:16:08;;;;;;;17.73;12.15;;;;;;;;;;5032115;28;20044;-75
2022/12/26 08:18:34;;;;;;;16.92;11.02;;;;;;;;;;5044697;28;20051;-75
2022/12/26 08:21:00;;;;;;;18.25;11.55;;;;;;;;;;5062985;28;20079;-74
2022/12/26 08:23:27;;;;;;;18.55;12.57;;;;;;;;;;5059263;28;20051;-76
2022/12/26 08:25:53;;;;;;;15.18;10.93;;;;;;;;;;5057812;28;20036;-80
2022/12/26 08:28:19;;;;;;;15.10;10.82;;;;;;;;;;5066500;28;20499;-78
2022/12/26 08:30:45;;;;;;;14.93;10.77;;;;;;;;;;5060703;28;20032;-76
2022/12/26 08:33:12;;;;;;;22.95;11.02;;;;;;;;;;5070709;28;20048;-76
2022/12/26 08:35:39;;;;;;;23.20;13.43;;;;;;;;;;5054607;28;20071;-79
2022/12/26 08:38:06;;;;;;;18.75;12.50;;;;;;;;;;5053589;28;20050;-75
2022/12/26 08:40:32;;;;;;;15.65;10.02;;;;;;;;;;5059044;28;20062;-74
2022/12/26 08:42:58;;;;;;;12.65;9.20;;;;;;;;;;5056415;28;20048;-76
2022/12/26 08:45:26;;;;;;;19.20;9.77;;;;;;;;;;5055018;28;20048;-72
2022/12/26 08:47:54;;;;;;;15.80;10.13;;;;;;;;;;5029471;28;20048;-71
2022/12/26 08:50:20;;;;;;;11.82;9.07;;;;;;;;;;5027582;28;20055;-70
2022/12/26 08:52:46;;;;;;;16.00;8.40;;;;;;;;;;5031059;28;20048;-70
2022/12/26 08:55:12;;;;;;;11.57;8.68;;;;;;;;;;5048665;28;20079;-71
2022/12/26 08:57:38;;;;;;;19.70;10.10;;;;;;;;;;5013189;28;20048;-71
2022/12/26 09:00:05;;;;;;;17.48;9.75;;;;;;;;;;5035088;28;20213;-72
2022/12/26 09:02:32;;;;;;;13.23;9.20;;;;;;;;;;5030118;28;20127;-72
2022/12/26 09:04:58;;;;;;;13.00;9.43;;;;;;;;;;5024867;28;20044;-71
2022/12/26 09:07:24;;;;;;;15.30;8.38;;;;;;;;;;5030943;28;20040;-70
2022/12/26 09:09:50;;;;;;;18.08;9.57;;;;;;;;;;5033336;28;20676;-70
2022/12/26 09:12:17;;;;;;;18.67;9.95;;;;;;;;;;5050140;28;20140;-70
2022/12/26 09:14:43;;;;;;;14.50;9.02;;;;;;;;;;5029451;28;20102;-70
2022/12/26 09:17:10;;;;;;;14.63;8.43;;;;;;;;;;5029449;28;20631;-71
2022/12/26 09:19:36;;;;;;;16.88;9.93;;;;;;;;;;5028438;28;20507;-71
2022/12/26 09:24:47;;;;;;;;;;;;;;;;;;5017713;28;20389;-71
2022/12/26 09:27:13;;;;;;;16.75;8.52;;;;;;;;;;5027944;28;19931;-71
2022/12/26 09:29:39;;;;;;;15.23;9.57;;;;;;;;;;5021629;28;20637;-71
2022/12/26 09:32:05;;;;;;;18.55;8.95;;;;;;;;;;5025650;28;20454;-70
2022/12/26 09:34:31;;;;;;;15.95;9.43;;;;;;;;;;5049192;28;20605;-72
2022/12/26 09:36:57;;;;;;;16.38;7.60;;;;;;;;;;5029856;28;20245;-72
2022/12/26 09:39:23;;;;;;;12.43;8.18;;;;;;;;;;5018134;28;20047;-72
2022/12/26 09:42:02;;;;;;;11.90;7.47;;;;;;;;;;5025104;28;20223;-72
2022/12/26 09:44:31;;;;;;;16.00;8.48;;;;;;;;;;5031740;28;20082;-72
2022/12/26 09:47:10;;;;;;;15.75;9.90;;;;;;;;;;5028743;28;20165;-71
2022/12/26 09:49:38;;;;;;;15.55;10.68;;;;;;;;;;5031468;28;20543;-73
2022/12/26 09:52:13;;;;;;;17.90;9.55;;;;;;;;;;5017439;28;20122;-73
2022/12/26 09:54:44;;;;;;;15.45;9.88;;;;;;;;;;5012120;28;20507;-73
2022/12/26 09:57:34;;;;;;;11.88;7.45;;;;;;;;;;5031054;28;20059;-74
2022/12/26 10:00:03;;;;;;;13.88;7.07;;;;;;;;;;5030726;28;20055;-72
2022/12/26 10:02:30;;;;;;;9.27;6.65;;;;;;;;;;5027860;28;20687;-73
2022/12/26 10:04:56;;;;;;;10.10;5.05;;;;;;;;;;5042992;28;21558;-73
2022/12/26 10:07:28;;;;;;;14.95;6.53;;;;;;;;;;5025804;28;20040;-73
2022/12/26 10:10:27;;;;;;;9.13;3.58;;;;;;;;;;5012817;28;20048;-73
2022/12/26 10:12:53;;;;;;;14.73;4.43;;;;;;;;;;4975269;28;20060;-73
2022/12/26 10:15:40;;;;;;;19.05;2.70;;;;;;;;;;5028528;28;20135;-72
2022/12/26 10:18:12;;;;;;;11.55;2.42;;;;;;;;;;5023776;28;20060;-73
2022/12/26 10:20:57;;;;;;;25.92;2.85;;;;;;;;;;5042274;28;20072;-73
2022/12/26 10:23:31;;;;;;;12.35;2.30;;;;;;;;;;5029776;28;20528;-73
2022/12/26 10:26:19;;;;;;;16.85;3.00;;;;;;;;;;5025744;28;21487;-73
2022/12/26 10:28:46;;;;;;;12.10;2.00;;;;;;;;;;5019014;28;20491;-71
2022/12/26 10:31:20;;;;;;;17.08;2.35;;;;;;;;;;5031776;28;20040;-72
2022/12/26 10:33:52;;;;;;;14.02;2.20;;;;;;;;;;5035949;28;20566;-73
2022/12/26 10:36:26;;;;;;;9.73;1.90;;;;;;;;;;5033482;28;20794;-72
2022/12/26 10:38:53;;;;;;;19.85;2.35;;;;;;;;;;5032873;28;20079;-72
2022/12/26 10:41:27;;;;;;;22.88;2.50;;;;;;;;;;5029784;28;20999;-73
2022/12/26 10:43:53;;;;;;;17.33;2.63;;;;;;;;;;5032771;28;20162;-72
2022/12/26 10:46:23;;;;;;;14.57;2.65;;;;;;;;;;5036219;28;20063;-72
2022/12/26 10:48:49;;;;;;;18.35;2.90;;;;;;;;;;5036960;28;20484;-73
2022/12/26 10:51:15;;;;;;;21.95;3.25;;;;;;;;;;5030692;28;20492;-72
2022/12/26 10:53:46;;;;;;;16.30;2.95;;;;;;;;;;5023935;28;20053;-72
2022/12/26 10:56:12;;;;;;;25.05;3.10;;;;;;;;;;5036768;28;20050;-72
2022/12/26 10:58:39;;;;;;;12.75;2.40;;;;;;;;;;5035127;28;20052;-72
2022/12/26 11:01:24;;;;;;;17.48;2.45;;;;;;;;;;5037070;28;20529;-72
2022/12/26 11:03:58;;;;;;;13.88;2.45;;;;;;;;;;5018289;28;20096;-72
2022/12/26 11:06:26;;;;;;;16.60;2.70;;;;;;;;;;5034754;28;20048;-73
2022/12/26 11:08:53;;;;;;;15.40;2.10;;;;;;;;;;5035552;28;20102;-72
2022/12/26 11:11:24;;;;;;;12.93;2.05;;;;;;;;;;5035266;28;20055;-73
2022/12/26 11:13:55;;;;;;;16.23;1.92;;;;;;;;;;5032310;28;20492;-71
2022/12/26 11:16:33;;;;;;;18.90;2.72;;;;;;;;;;5036271;28;20089;-72
2022/12/26 11:18:59;;;;;;;17.67;3.15;;;;;;;;;;5052225;28;20051;-72
2022/12/26 11:21:27;;;;;;;12.48;1.70;;;;;;;;;;5037255;28;20075;-72
2022/12/26 11:24:10;;;;;;;25.92;2.50;;;;;;;;;;5013578;28;20051;-71
2022/12/26 11:26:37;;;;;;;14.32;2.30;;;;;;;;;;5049558;28;20126;-72
2022/12/26 11:29:09;;;;;;;13.15;1.65;;;;;;;;;;5035389;28;20086;-72
2022/12/26 11:31:36;;;;;;;15.73;2.35;;;;;;;;;;5034072;28;20044;-72
2022/12/26 11:34:07;;;;;;;9.10;1.55;;;;;;;;;;5031499;28;20066;-73
2022/12/26 11:36:35;;;;;;;14.15;2.13;;;;;;;;;;5015874;28;20067;-72
2022/12/26 11:39:03;;;;;;;11.73;2.40;;;;;;;;;;5031887;28;20143;-73
2022/12/26 11:41:33;;;;;;;11.52;2.17;;;;;;;;;;5030504;28;20048;-72
2022/12/26 11:44:18;;;;;;;13.63;1.95;;;;;;;;;;5011454;28;20515;-73
2022/12/26 11:46:46;;;;;;;12.48;1.73;;;;;;;;;;5032846;28;20559;-72
2022/12/26 11:49:21;;;;;;;13.57;2.03;;;;;;;;;;5016361;28;20562;-72
2022/12/26 11:51:49;;;;;;;18.00;2.45;;;;;;;;;;5019989;28;20043;-73
2022/12/26 11:54:18;;;;;;;10.32;1.58;;;;;;;;;;5032821;28;22305;-72
2022/12/26 11:56:44;;;;;;;13.13;1.92;;;;;;;;;;5034879;28;20048;-73
2022/12/26 11:59:21;;;;;;;8.63;2.17;;;;;;;;;;5037624;28;20040;-72
2022/12/26 12:01:49;;;;;;;14.68;1.90;;;;;;;;;;5018583;28;20531;-73
2022/12/26 12:04:16;;;;;;;17.88;2.03;;;;;;;;;;5052419;28;20161;-72
2022/12/26 12:06:53;;;;;;;14.40;1.90;;;;;;;;;;5045289;28;20487;-72
2022/12/26 12:09:25;;;;;;;10.43;2.45;;;;;;;;;;5017660;28;20462;-73
2022/12/26 12:11:54;;;;;;;13.63;2.15;;;;;;;;;;5030824;28;20039;-73
2022/12/26 12:14:20;;;;;;;12.18;1.77;;;;;;;;;;5020679;28;20191;-73
2022/12/26 12:17:03;;;;;;;21.60;2.00;;;;;;;;;;5017440;28;20764;-73
2022/12/26 12:19:32;;;;;;;21.42;3.00;;;;;;;;;;5023908;28;20048;-73
2022/12/26 12:22:14;;;;;;;14.13;1.98;;;;;;;;;;5027599;28;20048;-73
2022/12/26 12:25:00;;;;;;;19.02;2.00;;;;;;;;;;5042679;28;20538;-73
2022/12/26 12:27:29;;;;;;;18.73;2.75;;;;;;;;;;5020279;28;20051;-73
2022/12/26 12:30:02;;;;;;;17.55;2.30;;;;;;;;;;5033910;28;20476;-73
2022/12/26 12:32:36;;;;;;;17.27;2.53;;;;;;;;;;5048394;28;20263;-71
2022/12/26 12:35:23;;;;;;;13.32;2.85;;;;;;;;;;5050761;28;20040;-72
2022/12/26 12:37:50;;;;;;;9.75;1.92;;;;;;;;;;5050206;28;20051;-73
2022/12/26 12:40:16;;;;;;;13.77;2.25;;;;;;;;;;5052159;28;20135;-73
2022/12/26 12:43:17;;;;;;;12.15;2.22;;;;;;;;;;5050741;28;20165;-73
2022/12/26 12:45:51;;;;;;;14.32;2.50;;;;;;;;;;5011271;28;20158;-72
2022/12/26 12:48:25;;;;;;;13.63;2.70;;;;;;;;;;5027008;28;20388;-73
2022/12/26 12:51:03;;;;;;;15.02;2.28;;;;;;;;;;5045988;28;20040;-72
2022/12/26 12:53:48;;;;;;;14.48;2.30;;;;;;;;;;5046194;28;20087;-72
2022/12/26 12:56:21;;;;;;;10.82;2.30;;;;;;;;;;5034149;28;20058;-72
2022/12/26 12:58:55;;;;;;;24.55;2.65;;;;;;;;;;5029437;28;20044;-73
2022/12/26 13:01:24;;;;;;;13.30;2.97;;;;;;;;;;5048834;28;20093;-73
2022/12/26 13:03:56;;;;;;;18.10;2.65;;;;;;;;;;5049444;28;20511;-72
2022/12/26 13:06:26;;;;;;;19.60;3.03;;;;;;;;;;5034622;28;21246;-73
2022/12/26 13:08:55;;;;;;;18.58;4.10;;;;;;;;;;5048154;28;20398;-73
2022/12/26 13:11:27;;;;;;;19.42;3.15;;;;;;;;;;5056647;28;20129;-73
2022/12/26 13:13:56;;;;;;;14.27;2.78;;;;;;;;;;5047116;28;20040;-73
2022/12/26 13:16:25;;;;;;;18.20;2.75;;;;;;;;;;5052767;28;20658;-73
2022/12/26 13:18:53;;;;;;;18.17;3.97;;;;;;;;;;5056433;28;20047;-73
2022/12/26 13:21:20;;;;;;;17.58;3.78;;;;;;;;;;5047791;28;20134;-72
2022/12/26 13:26:41;;;;;;;;;;;;;;;;;;5053457;28;20767;-73
2022/12/26 13:29:27;;;;;;;19.90;3.67;;;;;;;;;;5053121;28;20248;-73
2022/12/26 13:31:53;;;;;;;27.02;3.28;;;;;;;;;;5040306;28;20044;-72
2022/12/26 13:34:20;;;;;;;23.45;2.95;;;;;;;;;;5055054;28;20607;-73
2022/12/26 13:36:47;;;;;;;26.17;2.50;;;;;;;;;;5048773;28;20040;-72
2022/12/26 13:39:13;;;;;;;18.08;3.60;;;;;;;;;;5037259;28;20373;-73
2022/12/26 13:44:33;;;;;;;19.17;2.58;;;;;;;;;;5051406;28;20071;-73
2022/12/26 13:46:59;;;;;;;17.50;2.53;;;;;;;;;;5048633;28;20068;-73
2022/12/26 13:49:37;;;;;;;14.57;2.30;;;;;;;;;;5048778;28;20044;-74
2022/12/26 13:52:18;;;;;;;17.80;2.67;;;;;;;;;;5032666;28;20439;-72
2022/12/26 13:54:47;;;;;;;23.70;4.45;;;;;;;;;;5048130;28;20147;-73
2022/12/26 13:57:25;;;;;;;19.25;2.95;;;;;;;;;;5054722;28;20472;-73
2022/12/26 13:59:56;;;;;;;21.13;3.35;;;;;;;;;;5035396;28;20488;-73
2022/12/26 14:02:41;;;;;;;15.13;2.40;;;;;;;;;;5049581;28;21623;-72
2022/12/26 14:05:07;;;;;;;;;;;;;;;;;;5040498;28;20571;-73
2022/12/26 14:07:44;;;;;;;15.60;2.85;;;;;;;;;;5040026;28;19924;-73
2022/12/26 14:10:26;;;;;;;18.75;2.75;;;;;;;;;;5053450;28;20040;-74
2022/12/26 14:13:04;;;;;;;18.20;3.00;;;;;;;;;;5053991;28;20050;-73
2022/12/26 14:15:54;;;;;;;18.45;3.15;;;;;;;;;;5042915;28;20045;-72
2022/12/26 14:18:31;;;;;;;28.42;3.53;;;;;;;;;;5028199;28;20044;-73
2022/12/26 14:21:16;;;;;;;18.63;2.80;;;;;;;;;;5038137;28;20040;-73
2022/12/26 14:23:52;;;;;;;18.58;2.60;;;;;;;;;;5053489;28;20055;-73
2022/12/26 14:26:38;;;;;;;20.48;2.40;;;;;;;;;;5057737;28;21249;-73
2022/12/26 14:29:04;;;;;;;19.10;2.35;;;;;;;;;;5054900;28;20047;-73
2022/12/26 14:31:49;;;;;;;20.77;3.25;;;;;;;;;;5068507;27;20540;-73
2022/12/26 14:34:20;;;;;;;21.70;4.20;;;;;;;;;;5053319;28;20741;-73
2022/12/26 14:36:51;;;;;;;20.25;3.72;;;;;;;;;;5056028;28;20043;-73
2022/12/26 14:39:47;;;;;;;14.02;2.38;;;;;;;;;;5050855;28;20050;-73
2022/12/26 14:45:11;;;;;;;12.70;3.50;;;;;;;;;;5052120;28;20056;-76
2022/12/26 14:47:45;;;;;;;26.20;4.43;;;;;;;;;;5050801;28;20048;-76
2022/12/26 14:50:29;;;;;;;16.20;3.30;;;;;;;;;;5050750;28;20048;-76
2022/12/26 14:53:15;;;;;;;14.13;2.58;;;;;;;;;;5052512;28;20388;-73
2022/12/26 14:55:46;;;;;;;18.23;3.53;;;;;;;;;;5052679;28;20036;-73
2022/12/26 14:58:39;;;;;;;15.10;2.58;;;;;;;;;;5068129;27;20206;-73
2022/12/26 15:01:08;;;;;;;13.55;2.88;;;;;;;;;;5048588;28;20400;-72
2022/12/26 15:03:53;;;;;;;13.13;2.88;;;;;;;;;;5051174;28;20499;-76
2022/12/26 15:06:19;;;;;;;24.70;2.65;;;;;;;;;;5052654;28;20600;-76
2022/12/26 15:08:58;;;;;;;14.27;2.90;;;;;;;;;;5054514;28;21157;-77
2022/12/26 15:11:43;;;;;;;23.75;2.38;;;;;;;;;;5052678;28;20738;-77
2022/12/26 15:14:18;;;;;;;16.52;3.08;;;;;;;;;;5053611;28;20189;-76
2022/12/26 15:16:50;;;;;;;24.00;4.35;;;;;;;;;;5051341;28;20043;-77
2022/12/26 15:19:28;;;;;;;22.80;3.20;;;;;;;;;;5052578;28;20464;-76
2022/12/26 15:21:54;;;;;;;17.05;2.65;;;;;;;;;;5055028;28;20058;-76
2022/12/26 15:24:20;;;;;;;17.00;2.15;;;;;;;;;;5055605;28;20062;-78
2022/12/26 15:27:16;;;;;;;21.42;2.95;;;;;;;;;;5055141;28;20032;-77
2022/12/26 15:30:03;;;;;;;16.55;2.78;;;;;;;;;;5037269;28;20090;-76
2022/12/26 15:32:39;;;;;;;15.50;2.65;;;;;;;;;;5051921;28;20040;-76
2022/12/26 15:35:06;;;;;;;13.48;2.70;;;;;;;;;;5052380;28;20067;-75
2022/12/26 15:37:49;;;;;;;10.43;2.40;;;;;;;;;;5055828;28;20905;-76
2022/12/26 15:40:27;;;;;;;16.30;2.42;;;;;;;;;;5054620;28;20219;-76
2022/12/26 15:42:53;;;;;;;11.30;2.58;;;;;;;;;;5055281;28;20178;-77
2022/12/26 15:45:19;;;;;;;15.93;1.90;;;;;;;;;;5055629;28;20544;-77
2022/12/26 15:48:02;;;;;;;14.50;2.50;;;;;;;;;;5053789;28;20484;-77
2022/12/26 15:50:30;;;;;;;19.08;2.42;;;;;;;;;;5054282;28;20044;-77
2022/12/26 15:53:02;;;;;;;15.50;2.55;;;;;;;;;;5052473;28;20077;-76
2022/12/26 15:55:47;;;;;;;17.15;2.30;;;;;;;;;;5052123;28;20045;-76
2022/12/26 15:58:16;;;;;;;19.75;2.38;;;;;;;;;;5050532;28;20044;-77
2022/12/26 16:00:49;;;;;;;19.35;3.15;;;;;;;;;;5050823;28;20040;-72
2022/12/26 16:03:20;;;;;;;20.30;5.00;;;;;;;;;;5040911;28;20679;-72
2022/12/26 16:05:49;;;;;;;26.15;5.55;;;;;;;;;;5049501;28;20152;-72
2022/12/26 16:08:21;;;;;;;18.13;3.10;;;;;;;;;;5034749;28;20042;-72
2022/12/26 16:10:48;;;;;;;36.50;6.80;;;;;;;;;;5051470;28;20067;-72
2022/12/26 16:13:14;;;;;;;9.93;2.72;;;;;;;;;;5053973;28;20048;-73
2022/12/26 16:15:49;;;;;;;24.17;5.72;;;;;;;;;;5049804;28;20048;-72
2022/12/26 16:18:17;;;;;;;22.33;4.03;;;;;;;;;;5065150;28;20049;-72
2022/12/26 16:23:31;;;;;;;10.40;2.08;;;;;;;;;;5052552;28;20060;-72
2022/12/26 16:25:59;;;;;;;17.73;4.07;;;;;;;;;;5037192;28;20128;-73
2022/12/26 16:28:33;;;;;;;22.85;4.00;;;;;;;;;;5052280;28;20032;-73
2022/12/26 16:30:59;;;;;;;18.13;4.63;;;;;;;;;;5053447;28;20168;-73
2022/12/26 16:33:28;;;;;;;22.15;3.70;;;;;;;;;;5056423;28;20124;-73
2022/12/26 16:35:54;;;;;;;11.73;2.03;;;;;;;;;;5065379;27;20206;-72
2022/12/26 16:38:24;;;;;;;19.10;2.33;;;;;;;;;;5048796;28;20510;-72
2022/12/26 16:40:51;;;;;;;15.20;2.75;;;;;;;;;;5050249;28;20047;-72
2022/12/26 16:43:17;;;;;;;17.88;3.80;;;;;;;;;;5035084;28;20052;-73
2022/12/26 16:45:48;;;;;;;12.85;4.45;;;;;;;;;;5052931;28;20052;-72
2022/12/26 16:48:16;;;;;;;20.55;2.95;;;;;;;;;;5035536;28;20158;-73
2022/12/26 16:50:49;;;;;;;19.98;3.05;;;;;;;;;;5048895;28;20048;-72
2022/12/26 16:53:17;;;;;;;15.82;2.67;;;;;;;;;;5036918;28;20048;-72
2022/12/26 16:56:14;;;;;;;16.63;2.83;;;;;;;;;;5035963;28;20051;-72
2022/12/26 16:58:41;;;;;;;13.57;3.08;;;;;;;;;;5045975;28;20071;-69